Terminal Aerodrome Forecast
Issued by NWS Wilmington, OH

Current Version | Previous Version | Graphics & Text | Print | Product List | Glossary On
Versions: 1 2 3 4 5 6 7 8 9 10 11 12 13 14 15 16 17 18 19 20 21 22 23 24
344
FTUS41 KILN 221734
TAFCMH
TAF
KCMH 221734Z 2218/2318 21011KT P6SM BKN240
     FM230200 19010KT P6SM -SHRA OVC060
     FM230800 21011KT 5SM -SHRA OVC015
     FM231600 23014KT 3SM -SHRA OVC020=

USA.gov is the U.S. government's official web portal to all federal, state and local government web resources and services.